Time;durP1;ratioP1;P1;durP2;ratioP2;P2;SDS_P1;SDS_P2;PMS_P1;PMS_P2;Temp;Humidity;BMP_temperature;BMP_pressure;BME280_temperature;BME280_humidity;BME280_pressure;Samples;Min_cycle;Max_cycle;Signal;HPM_P1;HPM_P2
2022/09/30 00:00:51;;;;;;;3.60;1.70;;;;;;;9.03;81.00;100923.84;5037826;27;96736;-30
2022/09/30 00:03:16;;;;;;;2.60;1.58;;;;;;;9.00;80.90;100922.19;5037391;27;97933;-29
2022/09/30 00:05:41;;;;;;;1.80;1.10;;;;;;;8.98;80.56;100921.41;5037763;27;97252;-29
2022/09/30 00:08:07;;;;;;;2.45;1.38;;;;;;;8.98;80.93;100921.41;5037769;27;96641;-30
2022/09/30 00:10:32;;;;;;;2.88;1.38;;;;;;;8.96;80.95;100926.00;5037724;27;96856;-30
2022/09/30 00:12:57;;;;;;;4.00;1.88;;;;;;;8.96;81.00;100927.84;5036735;27;97853;-28
2022/09/30 00:15:23;;;;;;;2.08;1.50;;;;;;;8.99;80.84;100927.69;5036218;27;99290;-29
2022/09/30 00:17:49;;;;;;;2.38;1.10;;;;;;;8.94;80.75;100933.34;5037780;27;96642;-29
2022/09/30 00:20:14;;;;;;;2.83;1.42;;;;;;;8.93;81.05;100932.44;5037370;27;96728;-29
2022/09/30 00:22:39;;;;;;;2.67;1.52;;;;;;;8.92;81.00;100933.41;5037198;27;99234;-29
2022/09/30 00:25:05;;;;;;;3.70;2.03;;;;;;;8.91;81.00;100942.50;5035407;28;98296;-29
2022/09/30 00:27:30;;;;;;;3.60;1.75;;;;;;;8.89;81.29;100935.38;5037616;27;96657;-29
2022/09/30 00:29:55;;;;;;;3.65;1.90;;;;;;;8.90;81.29;100938.03;5037803;27;96795;-29
2022/09/30 00:32:21;;;;;;;3.72;1.70;;;;;;;8.86;81.32;100936.44;5036872;27;97921;-29
2022/09/30 00:34:46;;;;;;;4.60;1.95;;;;;;;8.90;81.33;100939.84;5036727;27;97260;-29
2022/09/30 00:37:14;;;;;;;3.00;1.70;;;;;;;8.89;81.10;100938.09;5039503;27;96491;-29
2022/09/30 00:39:39;;;;;;;2.90;1.63;;;;;;;8.85;81.38;100918.50;5039523;28;96871;-30
2022/09/30 00:42:10;;;;;;;3.38;1.98;;;;;;;8.83;81.33;100916.81;5038807;28;100808;-29
2022/09/30 00:44:44;;;;;;;4.43;1.90;;;;;;;8.87;81.36;100932.78;5038907;28;101056;-29
2022/09/30 00:47:47;;;;;;;7.13;2.00;;;;;;;8.88;81.63;100926.41;5040571;27;96575;-28
2022/09/30 00:50:36;;;;;;;2.97;1.65;;;;;;;8.86;81.51;100930.16;5040747;28;97076;-29
2022/09/30 00:53:10;;;;;;;5.00;1.63;;;;;;;8.84;81.34;100932.97;5038875;28;100826;-28
2022/09/30 00:56:01;;;;;;;4.35;1.90;;;;;;;8.81;81.59;100929.53;5038915;28;100534;-29
2022/09/30 00:58:35;;;;;;;4.28;2.05;;;;;;;8.80;81.35;100927.81;5040887;28;96677;-29
2022/09/30 01:01:02;;;;;;;3.30;1.67;;;;;;;8.79;81.38;100923.34;5039158;28;96678;-29
2022/09/30 01:03:30;;;;;;;4.05;2.30;;;;;;;8.73;81.37;100919.16;5037997;28;101616;-30
2022/09/30 01:05:55;;;;;;;3.63;1.92;;;;;;;8.75;81.53;100925.34;5038512;28;101137;-30
2022/09/30 01:08:23;;;;;;;2.85;1.55;;;;;;;8.74;81.44;100922.72;5038874;28;96587;-29
2022/09/30 01:10:48;;;;;;;3.42;2.10;;;;;;;8.74;81.43;100926.28;5040375;27;96768;-29
2022/09/30 01:13:16;;;;;;;4.88;1.88;;;;;;;8.73;81.55;100924.53;5039430;27;98379;-28
2022/09/30 01:15:42;;;;;;;2.25;1.42;;;;;;;8.74;81.59;100934.38;5039639;27;99305;-29
2022/09/30 01:18:25;;;;;;;2.35;1.35;;;;;;;8.69;81.52;100921.13;5040427;28;96483;-29
2022/09/30 01:20:59;;;;;;;3.92;2.17;;;;;;;8.70;81.70;100925.59;5040887;27;96502;-29
2022/09/30 01:23:41;;;;;;;3.20;1.73;;;;;;;8.67;81.71;100923.03;5039646;27;99015;-29
2022/09/30 01:26:18;;;;;;;4.82;1.50;;;;;;;8.68;81.94;100935.59;5039627;27;99321;-30
2022/09/30 01:29:02;;;;;;;7.18;3.28;;;;;;;8.68;81.49;100935.59;5039768;28;96550;-29
2022/09/30 01:31:42;;;;;;;8.00;2.78;;;;;;;8.66;81.74;100928.53;5039920;27;96734;-30
2022/09/30 01:34:44;;;;;;;3.97;2.30;;;;;;;8.66;81.91;100936.63;5038007;27;101402;-30
2022/09/30 01:37:25;;;;;;;2.97;1.77;;;;;;;8.64;81.76;100933.13;5039439;27;96501;-30
2022/09/30 01:39:59;;;;;;;7.47;2.50;;;;;;;8.64;81.77;100938.53;5038766;28;96543;-30
2022/09/30 01:42:39;;;;;;;4.43;2.35;;;;;;;8.61;81.80;100938.69;5040223;27;96471;-30
2022/09/30 01:45:32;;;;;;;4.50;1.90;;;;;;;8.61;81.77;100939.56;5037983;28;101379;-31
2022/09/30 01:48:36;;;;;;;4.68;2.47;;;;;;;8.60;81.59;100936.94;5039055;27;99282;-29
2022/09/30 01:51:33;;;;;;;4.85;2.45;;;;;;;8.57;81.54;100932.56;5025673;28;97307;-29
2022/09/30 01:54:12;;;;;;;9.40;2.47;;;;;;;8.56;81.70;100938.06;5030573;28;96933;-30
2022/09/30 01:56:42;;;;;;;8.43;3.08;;;;;;;8.52;81.82;100928.38;5037288;28;100625;-29
2022/09/30 01:59:15;;;;;;;4.30;2.33;;;;;;;8.53;81.59;100933.66;5037847;28;100937;-29
2022/09/30 02:01:54;;;;;;;6.72;3.05;;;;;;;8.50;81.51;100932.00;5038289;28;96622;-28
2022/09/30 02:04:30;;;;;;;6.20;2.55;;;;;;;8.48;81.77;100933.91;5039581;28;96575;-29
2022/09/30 02:07:06;;;;;;;5.38;2.80;;;;;;;8.46;81.87;100927.75;5037800;28;100919;-30
2022/09/30 02:09:48;;;;;;;5.60;2.63;;;;;;;8.44;82.00;100921.53;5039278;27;97926;-30
2022/09/30 02:12:19;;;;;;;7.45;2.42;;;;;;;8.43;82.00;100921.59;5039605;28;96569;-30
2022/09/30 02:14:52;;;;;;;6.47;3.27;;;;;;;8.44;82.17;100928.78;5037819;28;99489;-28
2022/09/30 02:17:49;;;;;;;8.18;2.92;;;;;;;8.44;82.12;100929.63;5038678;27;99789;-29
2022/09/30 02:20:18;;;;;;;7.30;3.60;;;;;;;8.41;82.03;100924.38;5009171;28;101122;-29
2022/09/30 02:22:50;;;;;;;17.67;4.35;;;;;;;8.39;82.01;100919.97;5038706;27;96701;-30
2022/09/30 02:25:24;;;;;;;13.68;4.53;;;;;;;8.41;82.36;100920.81;5037499;28;96868;-29
2022/09/30 02:27:58;;;;;;;7.75;3.10;;;;;;;8.42;82.12;100928.84;5037440;28;101115;-29
2022/09/30 02:30:24;;;;;;;8.32;3.20;;;;;;;8.42;82.13;100936.06;5038848;27;97810;-29
2022/09/30 02:32:55;;;;;;;9.65;3.40;;;;;;;8.41;81.87;100940.56;5037759;28;96662;-30
2022/09/30 02:35:29;;;;;;;10.02;2.90;;;;;;;8.40;82.00;100941.53;5038703;27;96878;-30
2022/09/30 02:38:02;;;;;;;6.57;3.13;;;;;;;8.39;82.08;100942.47;5036953;28;99204;-29
2022/09/30 02:40:48;;;;;;;11.73;3.30;;;;;;;8.38;82.24;100940.69;5038699;27;99298;-29
2022/09/30 02:43:17;;;;;;;5.28;2.85;;;;;;;8.35;82.08;100951.66;5037657;28;96693;-29
2022/09/30 02:46:21;;;;;;;7.78;2.80;;;;;;;8.36;82.15;100956.09;5037601;28;96876;-29
2022/09/30 02:48:58;;;;;;;7.88;3.28;;;;;;;8.33;82.30;100941.91;5034640;28;98426;-29
2022/09/30 02:51:44;;;;;;;5.22;2.40;;;;;;;8.32;82.23;100942.84;5037199;28;101122;-29
2022/09/30 02:54:29;;;;;;;7.00;3.30;;;;;;;8.30;82.44;100943.78;5037505;28;96564;-31
2022/09/30 02:57:17;;;;;;;3.78;2.47;;;;;;;8.29;82.34;100942.06;5037391;28;96690;-29
2022/09/30 02:59:43;;;;;;;11.18;3.10;;;;;;;8.29;81.97;100942.06;5037355;27;98175;-29
2022/09/30 03:02:09;;;;;;;8.23;3.10;;;;;;;8.25;82.31;100937.75;5038150;27;97774;-29
2022/09/30 03:04:38;;;;;;;2.95;1.90;;;;;;;8.24;82.35;100937.84;5038856;27;96710;-29
2022/09/30 03:07:03;;;;;;;4.13;2.15;;;;;;;8.23;82.43;100939.66;5037425;28;96824;-29
2022/09/30 03:09:29;;;;;;;5.57;2.80;;;;;;;8.21;82.06;100949.66;5038070;27;97379;-29
2022/09/30 03:12:07;;;;;;;3.92;2.30;;;;;;;8.20;82.30;100949.72;5038216;27;97826;-29
2022/09/30 03:14:52;;;;;;;7.60;2.20;;;;;;;8.17;82.25;100941.78;5035770;28;96818;-29
2022/09/30 03:17:57;;;;;;;5.60;2.65;;;;;;;8.19;82.41;100950.69;5037142;28;96748;-29
2022/09/30 03:20:37;;;;;;;5.03;2.17;;;;;;;8.16;82.25;100950.84;4995693;28;101208;-30
2022/09/30 03:23:35;;;;;;;4.97;2.45;;;;;;;8.13;82.22;100954.56;5036590;28;100074;-30
2022/09/30 03:26:24;;;;;;;8.43;2.58;;;;;;;8.13;82.60;100959.97;5002510;28;96762;-31
2022/09/30 03:29:12;;;;;;;4.20;2.33;;;;;;;8.11;82.36;100956.47;5037002;28;96572;-29
2022/09/30 03:32:02;;;;;;;6.88;2.58;;;;;;;8.11;82.31;100961.00;5036345;28;101407;-29
2022/09/30 03:34:37;;;;;;;5.00;2.13;;;;;;;8.09;82.31;100967.31;5036292;28;100781;-29
2022/09/30 03:37:26;;;;;;;3.30;2.20;;;;;;;8.11;82.45;100977.19;5036828;28;96525;-29
2022/09/30 03:40:16;;;;;;;3.55;2.00;;;;;;;8.09;82.10;100977.25;5038104;27;96527;-28
2022/09/30 03:42:54;;;;;;;2.72;1.95;;;;;;;8.07;82.29;100981.84;5037266;27;97870;-29
2022/09/30 03:45:19;;;;;;;3.58;2.13;;;;;;;8.08;82.25;100980.91;5037622;28;97952;-29
2022/09/30 03:47:50;;;;;;;4.22;1.85;;;;;;;8.07;82.35;100987.25;5037975;27;96502;-30
2022/09/30 03:50:20;;;;;;;5.95;2.20;;;;;;;8.05;82.61;100983.72;5036585;28;96725;-29
2022/09/30 03:52:48;;;;;;;4.03;2.53;;;;;;;8.05;82.55;100991.81;5035770;28;101786;-29
2022/09/30 03:55:14;;;;;;;5.22;2.42;;;;;;;8.05;82.68;100992.69;5035916;28;101293;-29
2022/09/30 03:57:41;;;;;;;3.10;1.88;;;;;;;8.02;82.63;100992.84;5036420;28;96696;-29
2022/09/30 04:00:07;;;;;;;5.53;2.75;;;;;;;8.07;82.58;101004.28;5036956;28;96883;-30
2022/09/30 04:02:35;;;;;;;6.85;2.53;;;;;;;8.05;82.79;100997.22;5035932;28;100833;-30
2022/09/30 04:05:00;;;;;;;3.92;2.28;;;;;;;8.07;82.40;100996.19;5035909;28;100879;-31
2022/09/30 04:07:26;;;;;;;3.92;2.42;;;;;;;8.06;82.56;101002.56;5036862;27;96649;-29
2022/09/30 04:09:51;;;;;;;4.95;2.60;;;;;;;8.07;82.74;100992.63;5037504;27;96772;-29
2022/09/30 04:12:17;;;;;;;3.25;2.05;;;;;;;8.06;82.63;100991.75;5037382;27;97809;-29
2022/09/30 04:14:42;;;;;;;8.30;2.80;;;;;;;8.06;82.45;100991.75;5036218;27;99362;-31
2022/09/30 04:17:07;;;;;;;5.03;3.00;;;;;;;8.06;82.51;100994.47;5037830;27;96570;-29
2022/09/30 04:19:38;;;;;;;4.15;2.58;;;;;;;8.07;82.73;100992.63;5037815;27;96765;-30
2022/09/30 04:22:07;;;;;;;4.03;2.13;;;;;;;8.08;82.66;100997.97;5035383;28;100962;-29
2022/09/30 04:24:33;;;;;;;6.22;2.40;;;;;;;8.06;82.67;101005.25;5037304;28;97303;-29
2022/09/30 04:26:59;;;;;;;5.28;2.97;;;;;;;8.06;82.87;101002.56;5036006;28;96668;-29
2022/09/30 04:29:24;;;;;;;7.75;2.08;;;;;;;8.04;83.07;101006.28;5037608;28;96724;-29
2022/09/30 04:31:49;;;;;;;7.32;2.88;;;;;;;8.07;83.13;101011.50;5036442;27;97959;-29
2022/09/30 04:34:15;;;;;;;4.50;2.72;;;;;;;8.05;83.25;101008.88;5036826;27;97266;-31
2022/09/30 04:36:40;;;;;;;4.20;2.30;;;;;;;8.06;82.61;101007.94;5037118;27;96514;-29
2022/09/30 04:39:05;;;;;;;6.00;2.72;;;;;;;8.08;82.65;101014.16;5037531;27;96830;-29
2022/09/30 04:41:32;;;;;;;4.22;2.25;;;;;;;8.11;82.70;101012.25;5036777;27;97344;-28
2022/09/30 04:43:58;;;;;;;3.55;2.10;;;;;;;8.11;83.19;101021.22;5035442;28;101177;-30
2022/09/30 04:46:24;;;;;;;5.20;2.75;;;;;;;8.10;82.75;101008.66;5035920;28;96561;-29
2022/09/30 04:48:49;;;;;;;4.90;2.75;;;;;;;8.13;82.88;101013.94;5037649;27;96698;-29
2022/09/30 04:51:19;;;;;;;2.88;1.92;;;;;;;8.14;82.98;101012.97;5036540;27;99486;-29
2022/09/30 04:53:46;;;;;;;4.50;2.13;;;;;;;8.14;82.89;101014.78;5035362;28;100924;-29
2022/09/30 04:56:12;;;;;;;3.58;2.53;;;;;;;8.17;82.84;101023.59;5034973;28;96536;-29
2022/09/30 04:58:37;;;;;;;4.05;2.55;;;;;;;8.17;82.87;101022.72;5035515;28;96752;-30
2022/09/30 05:01:12;;;;;;;4.70;2.15;;;;;;;8.12;82.77;101014.84;5036459;27;99472;-29
2022/09/30 05:03:38;;;;;;;5.95;3.13;;;;;;;8.15;83.06;101013.84;5035000;28;100744;-29
2022/09/30 05:06:05;;;;;;;3.78;2.25;;;;;;;8.13;83.07;101024.72;5037123;27;96663;-29
2022/09/30 05:08:32;;;;;;;4.53;2.38;;;;;;;8.11;82.85;101026.63;5035644;28;96810;-29
2022/09/30 05:11:00;;;;;;;3.97;2.53;;;;;;;8.13;83.03;101030.13;5036484;27;97870;-29
2022/09/30 05:13:31;;;;;;;6.05;2.22;;;;;;;8.14;82.88;101030.97;5034747;28;100966;-29
2022/09/30 05:15:56;;;;;;;3.50;2.20;;;;;;;8.12;83.86;101036.44;5035406;28;96784;-29
2022/09/30 05:18:24;;;;;;;3.95;2.72;;;;;;;8.10;83.15;101035.63;5036899;27;96687;-29
2022/09/30 05:20:51;;;;;;;3.72;2.28;;;;;;;8.09;83.20;101033.91;5034266;27;100800;-28
2022/09/30 05:23:18;;;;;;;3.30;2.22;;;;;;;8.11;83.38;101041.94;5037750;28;100628;-29
2022/09/30 05:25:44;;;;;;;4.82;2.30;;;;;;;8.07;83.40;101031.25;5040343;27;96487;-28
2022/09/30 05:28:09;;;;;;;3.60;2.22;;;;;;;8.08;83.37;101034.88;5038829;28;96775;-29
2022/09/30 05:30:34;;;;;;;4.43;2.22;;;;;;;8.07;83.30;101036.66;5039213;27;99544;-29
2022/09/30 05:33:00;;;;;;;4.88;1.85;;;;;;;8.08;83.47;101038.44;5039532;28;104705;-29
2022/09/30 05:35:25;;;;;;;4.53;2.22;;;;;;;8.07;83.57;101042.06;5039943;27;96780;-30
2022/09/30 05:37:50;;;;;;;3.15;2.13;;;;;;;8.04;83.59;101044.03;5040335;27;96917;-29
2022/09/30 05:40:16;;;;;;;3.72;2.42;;;;;;;8.07;83.33;101047.44;5039394;27;99565;-29
2022/09/30 05:42:44;;;;;;;3.88;2.00;;;;;;;8.05;83.00;101052.03;5039667;27;97801;-29
2022/09/30 05:45:09;;;;;;;3.17;2.35;;;;;;;8.06;83.30;101050.25;5038964;27;96450;-29
2022/09/30 05:47:35;;;;;;;3.55;2.28;;;;;;;8.03;83.21;101039.56;5039987;27;96752;-29
2022/09/30 05:50:00;;;;;;;4.05;2.22;;;;;;;8.02;83.82;101043.25;5039430;27;97938;-29
2022/09/30 05:52:27;;;;;;;3.13;2.20;;;;;;;8.02;83.36;101041.41;5039311;27;98288;-30
2022/09/30 05:54:53;;;;;;;4.90;2.92;;;;;;;8.01;83.72;101046.91;5039717;27;96530;-29
2022/09/30 05:57:18;;;;;;;4.63;2.40;;;;;;;8.01;83.57;101046.91;5039713;27;96756;-29
2022/09/30 05:59:43;;;;;;;4.75;2.67;;;;;;;7.99;83.93;101044.25;5038934;27;99353;-29
2022/09/30 06:02:09;;;;;;;4.53;2.42;;;;;;;8.03;83.56;101055.75;5039444;27;102241;-29
2022/09/30 06:04:35;;;;;;;4.53;2.72;;;;;;;8.03;83.92;101040.47;5039693;27;96455;-30
2022/09/30 06:07:00;;;;;;;4.70;2.70;;;;;;;8.08;83.59;101045.66;5039732;28;96738;-29
2022/09/30 06:09:25;;;;;;;12.52;2.42;;;;;;;8.08;83.64;101049.22;5038629;27;98127;-29
2022/09/30 06:11:53;;;;;;;4.35;2.60;;;;;;;8.11;83.80;101050.03;5039005;27;97811;-30
2022/09/30 06:14:19;;;;;;;6.75;2.92;;;;;;;8.13;84.13;101051.69;5038282;27;96710;-29
2022/09/30 06:16:44;;;;;;;8.77;2.97;;;;;;;8.15;83.84;101060.59;5037257;28;96682;-29
2022/09/30 06:19:10;;;;;;;7.18;3.13;;;;;;;8.16;83.43;101050.69;5037371;28;100664;-30
2022/09/30 06:21:35;;;;;;;6.70;2.55;;;;;;;8.20;83.80;101058.56;5038558;27;97698;-29
2022/09/30 06:24:01;;;;;;;4.65;2.53;;;;;;;8.25;83.78;101063.72;5039403;27;96411;-29
2022/09/30 06:26:26;;;;;;;5.90;3.17;;;;;;;8.28;84.02;101066.28;5039826;27;96718;-28
2022/09/30 06:28:52;;;;;;;9.52;2.55;;;;;;;8.29;84.43;101057.22;5038688;28;98141;-30
2022/09/30 06:31:17;;;;;;;7.10;3.15;;;;;;;8.37;84.62;101059.56;5038251;27;98920;-28
2022/09/30 06:33:43;;;;;;;8.10;3.08;;;;;;;8.42;85.79;101061.09;5038008;27;96688;-30
2022/09/30 06:36:09;;;;;;;3.95;2.58;;;;;;;8.47;84.85;101063.56;5037724;28;96755;-28
2022/09/30 06:38:38;;;;;;;4.05;2.63;;;;;;;8.58;85.74;101068.44;5036964;28;100816;-28
2022/09/30 06:41:04;;;;;;;4.55;2.58;;;;;;;8.63;85.46;101075.38;5036899;28;100779;-29
2022/09/30 06:43:29;;;;;;;5.55;3.03;;;;;;;8.66;85.42;101082.44;5036850;28;96786;-28
2022/09/30 06:45:55;;;;;;;5.35;2.88;;;;;;;8.73;86.01;101086.59;5037917;27;96766;-28
2022/09/30 06:48:21;;;;;;;6.57;3.00;;;;;;;8.83;86.89;101081.59;5037728;27;97801;-30
2022/09/30 06:50:47;;;;;;;6.97;3.92;;;;;;;8.90;86.46;101086.59;5036588;28;101475;-28
2022/09/30 06:53:13;;;;;;;6.35;2.65;;;;;;;8.93;85.66;101078.31;5038231;28;96627;-28
2022/09/30 06:55:38;;;;;;;5.00;2.92;;;;;;;8.99;86.80;101077.16;5038188;27;96682;-29
2022/09/30 06:58:12;;;;;;;7.15;3.95;;;;;;;9.07;85.70;101074.06;5036842;27;99369;-28
2022/09/30 07:00:38;;;;;;;4.32;2.95;;;;;;;9.13;87.49;101071.06;5036817;28;101277;-28
2022/09/30 07:03:10;;;;;;;5.63;2.97;;;;;;;9.21;86.95;101078.75;5038468;27;96612;-29
2022/09/30 07:05:36;;;;;;;5.03;3.05;;;;;;;9.28;87.66;101070.22;5038663;27;96651;-28
2022/09/30 07:08:02;;;;;;;5.22;3.08;;;;;;;9.37;87.32;101071.59;5036721;28;100858;-28
2022/09/30 07:10:27;;;;;;;6.53;3.72;;;;;;;9.43;86.65;101073.94;5038037;28;97874;-28
2022/09/30 07:12:53;;;;;;;6.30;2.97;;;;;;;9.48;86.10;101073.69;5038348;27;96630;-28
2022/09/30 07:15:22;;;;;;;7.13;3.00;;;;;;;9.56;86.06;101077.75;5038229;27;96788;-28
2022/09/30 07:17:57;;;;;;;5.78;3.35;;;;;;;9.64;85.97;101076.47;5037706;27;99769;-28
2022/09/30 07:20:23;;;;;;;6.15;3.13;;;;;;;9.72;87.56;101068.78;5036572;28;100976;-28
2022/09/30 07:22:49;;;;;;;6.85;3.28;;;;;;;9.80;87.92;101069.28;5037957;27;96511;-28
2022/09/30 07:25:14;;;;;;;7.00;3.10;;;;;;;9.83;86.46;101070.94;5036490;28;96892;-29
2022/09/30 07:27:40;;;;;;;7.55;2.97;;;;;;;9.88;87.00;101064.28;5037673;27;99407;-28
2022/09/30 07:30:06;;;;;;;5.00;2.78;;;;;;;9.93;86.51;101058.63;5037758;27;97758;-28
2022/09/30 07:32:31;;;;;;;5.57;3.50;;;;;;;9.96;86.78;101062.06;5036636;28;96703;-28
2022/09/30 07:34:57;;;;;;;3.67;2.67;;;;;;;10.02;86.42;101063.53;5037990;27;97121;-28
2022/09/30 07:37:25;;;;;;;5.20;2.67;;;;;;;10.04;87.36;101050.78;5037984;27;97381;-28
2022/09/30 07:39:51;;;;;;;2.85;1.88;;;;;;;10.11;87.69;101052.19;5036419;28;100814;-28
2022/09/30 07:42:21;;;;;;;3.85;2.10;;;;;;;10.15;87.10;101050.19;5036543;28;96549;-28
2022/09/30 07:44:50;;;;;;;4.03;2.55;;;;;;;10.26;86.58;101058.56;5037399;28;96715;-28
2022/09/30 07:47:16;;;;;;;5.22;2.47;;;;;;;10.31;87.12;101050.22;5035549;28;100899;-29
2022/09/30 07:49:42;;;;;;;4.97;2.60;;;;;;;10.40;87.50;101049.69;5035981;28;101019;-27
2022/09/30 07:52:10;;;;;;;4.47;2.40;;;;;;;10.50;86.01;101055.44;5036409;28;96590;-32
2022/09/30 07:54:36;;;;;;;5.75;3.05;;;;;;;10.60;87.58;101056.66;5036404;28;96843;-28
2022/09/30 07:57:02;;;;;;;4.78;2.80;;;;;;;10.66;87.69;101055.44;5037433;27;97658;-28
2022/09/30 07:59:30;;;;;;;5.32;2.60;;;;;;;10.78;87.97;101052.00;5037270;27;97373;-29
2022/09/30 08:01:55;;;;;;;4.15;2.63;;;;;;;10.84;86.54;101044.38;5036202;28;96678;-28
2022/09/30 08:04:22;;;;;;;6.40;2.28;;;;;;;10.96;85.95;101056.31;5038226;28;96792;-28
2022/09/30 08:06:51;;;;;;;5.03;2.83;;;;;;;11.03;85.67;101059.53;5036922;28;98046;-28
2022/09/30 08:09:18;;;;;;;4.95;2.38;;;;;;;11.07;86.88;101050.25;5035720;28;101096;-28
2022/09/30 08:11:44;;;;;;;4.57;2.15;;;;;;;11.10;85.73;101055.47;5035623;28;96651;-28
2022/09/30 08:14:14;;;;;;;3.47;1.98;;;;;;;11.16;85.48;101057.84;5037106;27;96923;-29
2022/09/30 08:16:40;;;;;;;4.75;3.13;;;;;;;11.20;85.58;101063.94;5035520;28;100880;-30
2022/09/30 08:19:05;;;;;;;3.88;2.25;;;;;;;11.22;85.88;101062.88;5036917;27;99602;-28
2022/09/30 08:21:31;;;;;;;3.25;1.83;;;;;;;11.20;86.03;101056.69;5037494;27;96768;-29
2022/09/30 08:23:56;;;;;;;3.30;2.10;;;;;;;11.24;85.09;101058.22;5037263;27;96834;-29
2022/09/30 08:26:23;;;;;;;4.13;2.10;;;;;;;11.27;85.34;101055.34;5036678;27;98772;-28
2022/09/30 08:28:49;;;;;;;3.97;2.20;;;;;;;11.32;86.37;101056.88;5035809;27;100929;-28
2022/09/30 08:31:20;;;;;;;3.88;2.28;;;;;;;11.36;85.57;101062.03;5035992;28;96815;-28
2022/09/30 08:33:46;;;;;;;2.90;1.83;;;;;;;11.42;86.11;101058.09;5035756;28;96779;-29
2022/09/30 08:36:14;;;;;;;3.80;2.50;;;;;;;11.49;86.23;101051.31;5036404;28;97533;-28
2022/09/30 08:38:40;;;;;;;4.43;2.45;;;;;;;11.55;86.33;101056.34;5036738;27;97350;-28
2022/09/30 08:41:08;;;;;;;4.95;2.60;;;;;;;11.59;85.73;101057.91;5037031;27;96590;-28
2022/09/30 08:43:45;;;;;;;5.15;2.28;;;;;;;11.66;85.51;101058.41;5035825;28;96883;-28
2022/09/30 08:46:43;;;;;;;4.43;2.25;;;;;;;11.73;85.79;101061.56;5035422;28;100794;-30
2022/09/30 08:49:21;;;;;;;3.28;1.95;;;;;;;11.77;84.91;101064.00;5035152;28;101215;-28
2022/09/30 08:51:49;;;;;;;6.05;2.42;;;;;;;11.84;85.23;101064.47;5035790;28;96736;-28
2022/09/30 08:54:19;;;;;;;3.33;1.98;;;;;;;11.90;85.11;101065.00;5036024;28;96892;-29
2022/09/30 08:56:46;;;;;;;2.10;1.58;;;;;;;12.00;84.75;101059.84;5036053;27;100900;-28
2022/09/30 08:59:30;;;;;;;5.88;2.72;;;;;;;12.06;84.41;101061.28;5039962;27;98555;-28
2022/09/30 09:02:17;;;;;;;6.10;2.15;;;;;;;12.16;84.92;101056.16;5040187;27;96606;-29
2022/09/30 09:04:44;;;;;;;3.42;2.15;;;;;;;12.25;84.85;101055.53;5039156;28;96953;-30
2022/09/30 09:07:24;;;;;;;4.47;2.85;;;;;;;12.32;83.72;101067.75;5038470;28;101079;-29
2022/09/30 09:10:15;;;;;;;3.40;1.73;;;;;;;12.38;83.22;101066.50;5038684;28;100765;-29
2022/09/30 09:13:11;;;;;;;5.07;2.30;;;;;;;12.43;82.82;101069.78;5039017;28;96540;-28
2022/09/30 09:16:14;;;;;;;2.97;1.80;;;;;;;12.52;82.67;101067.31;5039784;28;96850;-28
2022/09/30 09:19:09;;;;;;;4.15;2.30;;;;;;;12.61;82.56;101068.56;4988042;27;97393;-29
2022/09/30 09:21:50;;;;;;;4.45;2.22;;;;;;;12.74;82.53;101066.75;5038640;28;99253;-28
2022/09/30 09:24:23;;;;;;;2.95;1.60;;;;;;;12.83;81.63;101062.56;5038815;28;96705;-28
2022/09/30 09:26:52;;;;;;;2.72;1.58;;;;;;;12.95;80.48;101060.84;5038790;28;96713;-29
2022/09/30 09:29:28;;;;;;;4.25;1.65;;;;;;;13.14;80.75;101072.22;5037772;28;100941;-28
2022/09/30 09:31:54;;;;;;;4.97;2.15;;;;;;;13.27;80.14;101068.63;5038360;27;100802;-28
2022/09/30 09:34:23;;;;;;;4.85;1.70;;;;;;;13.40;79.08;101065.97;5039827;27;97072;-28
2022/09/30 09:37:11;;;;;;;2.45;1.27;;;;;;;13.53;78.34;101062.25;5039746;28;96778;-28
2022/09/30 09:40:12;;;;;;;3.35;1.70;;;;;;;13.75;77.58;101072.53;5038227;28;101159;-28
2022/09/30 09:43:00;;;;;;;2.20;1.45;;;;;;;14.01;76.38;101067.03;5014342;27;97905;-28
2022/09/30 09:45:34;;;;;;;2.15;1.30;;;;;;;14.32;76.52;101065.66;5039816;28;96701;-28
2022/09/30 09:48:00;;;;;;;2.17;1.45;;;;;;;14.68;75.51;101065.78;5038847;28;96615;-28
2022/09/30 09:51:02;;;;;;;4.93;1.10;;;;;;;14.98;73.72;101068.91;5039198;27;99211;-28
2022/09/30 09:54:03;;;;;;;2.35;1.30;;;;;;;15.38;73.94;101063.09;5024473;28;101152;-27
2022/09/30 09:56:32;;;;;;;2.20;1.35;;;;;;;15.69;71.84;101057.94;5025491;27;96773;-27
2022/09/30 09:59:09;;;;;;;2.90;1.40;;;;;;;15.88;71.42;101062.84;5039434;28;96725;-27
2022/09/30 10:01:40;;;;;;;1.65;0.80;;;;;;;16.14;71.50;101063.47;5038769;28;99585;-28
2022/09/30 10:04:10;;;;;;;2.33;1.13;;;;;;;16.35;70.35;101066.25;5037709;28;101738;-28
2022/09/30 10:07:11;;;;;;;2.20;1.15;;;;;;;16.52;68.70;101063.03;5038143;28;96589;-28
2022/09/30 10:09:39;;;;;;;2.55;1.30;;;;;;;16.67;69.75;101066.34;5025016;28;96727;-30
2022/09/30 10:12:04;;;;;;;1.55;1.00;;;;;;;16.84;69.62;101058.63;5037507;28;100860;-28
2022/09/30 10:14:30;;;;;;;1.20;1.02;;;;;;;16.84;68.64;101056.75;5038417;28;97870;-27
2022/09/30 10:17:00;;;;;;;2.25;1.33;;;;;;;16.95;67.89;101061.31;5037810;28;96650;-29
2022/09/30 10:19:28;;;;;;;2.22;1.45;;;;;;;17.00;68.26;101058.19;5037742;28;96727;-27
2022/09/30 10:22:10;;;;;;;3.75;1.75;;;;;;;16.95;68.29;101064.91;5036797;28;101505;-28
2022/09/30 10:24:36;;;;;;;;;;;;;;;17.04;67.06;101063.28;5037673;28;100743;-28
2022/09/30 10:27:02;;;;;;;2.72;1.52;;;;;;;17.17;67.52;101060.34;5037848;28;96606;-28
2022/09/30 10:29:34;;;;;;;2.75;1.55;;;;;;;17.22;65.93;101065.41;5038962;27;96824;-28
2022/09/30 10:32:02;;;;;;;2.42;1.20;;;;;;;17.43;67.11;101049.88;5037355;28;101031;-28
2022/09/30 10:34:37;;;;;;;3.53;1.70;;;;;;;17.56;66.87;101058.72;5036927;27;101615;-28
2022/09/30 10:37:15;;;;;;;1.65;1.10;;;;;;;17.45;67.29;101056.09;5037577;28;96684;-27
2022/09/30 10:39:43;;;;;;;1.45;0.85;;;;;;;17.59;67.21;101052.09;5038071;28;96631;-28
2022/09/30 10:42:17;;;;;;;2.65;1.25;;;;;;;17.89;66.40;101050.44;5037065;28;99460;-28
2022/09/30 10:45:00;;;;;;;4.78;1.25;;;;;;;17.75;65.06;101057.97;5037128;28;100723;-28
2022/09/30 10:47:26;;;;;;;2.78;1.35;;;;;;;17.73;66.28;101054.53;5036906;28;96800;-28
2022/09/30 10:50:10;;;;;;;4.22;1.77;;;;;;;17.85;64.11;101058.06;5037422;28;96823;-28
2022/09/30 10:52:43;;;;;;;4.28;1.95;;;;;;;17.79;64.95;101059.44;5037040;28;100817;-28
2022/09/30 10:55:29;;;;;;;2.97;1.95;;;;;;;17.95;63.27;101050.75;5036755;28;100983;-28
2022/09/30 10:58:02;;;;;;;3.38;1.90;;;;;;;18.32;64.87;101052.03;5037299;28;96702;-27
2022/09/30 11:00:32;;;;;;;3.05;1.77;;;;;;;18.60;60.90;101042.16;5037442;28;96698;-27
2022/09/30 11:03:04;;;;;;;5.20;2.03;;;;;;;18.45;61.89;101044.44;5036783;28;100576;-28
2022/09/30 11:05:34;;;;;;;2.95;1.75;;;;;;;18.09;64.00;101051.38;5037303;28;98865;-28
2022/09/30 11:08:05;;;;;;;3.90;2.38;;;;;;;17.93;63.13;101051.91;5037222;28;96588;-28
2022/09/30 11:10:38;;;;;;;3.15;2.03;;;;;;;17.98;63.57;101047.75;5037246;28;96818;-28
2022/09/30 11:13:14;;;;;;;3.75;2.25;;;;;;;18.31;62.15;101042.97;5036177;28;101220;-28
2022/09/30 11:15:55;;;;;;;4.05;2.08;;;;;;;18.45;61.27;101033.47;5036476;27;100771;-28
2022/09/30 11:18:42;;;;;;;5.97;2.50;;;;;;;18.66;61.47;101041.56;5036986;28;96595;-29
2022/09/30 11:21:16;;;;;;;7.32;2.38;;;;;;;18.59;60.96;101045.88;5037981;28;96772;-28
2022/09/30 11:24:11;;;;;;;4.18;2.45;;;;;;;18.04;60.99;101038.97;5036584;28;101205;-28
2022/09/30 11:26:58;;;;;;;7.00;3.10;;;;;;;17.53;61.90;101042.56;5037907;28;97861;-29
2022/09/30 11:29:33;;;;;;;5.60;2.85;;;;;;;17.15;64.11;101037.69;5038464;28;96535;-28
2022/09/30 11:32:16;;;;;;;4.43;3.00;;;;;;;16.91;65.29;101030.59;5038758;28;96797;-28
2022/09/30 11:34:48;;;;;;;7.00;3.33;;;;;;;16.85;66.77;101025.66;5036049;28;101134;-28
2022/09/30 11:37:35;;;;;;;5.38;3.33;;;;;;;17.19;66.02;101029.09;5036137;28;100856;-28
2022/09/30 11:40:26;;;;;;;5.25;2.72;;;;;;;17.48;65.01;101030.28;5038149;28;96542;-29
2022/09/30 11:43:05;;;;;;;4.30;2.45;;;;;;;17.72;61.85;101014.41;5036748;28;96732;-28
2022/09/30 11:45:36;;;;;;;6.50;2.83;;;;;;;18.03;63.67;101018.03;5036010;28;101269;-28
2022/09/30 11:48:18;;;;;;;6.05;2.20;;;;;;;18.00;62.79;101015.56;5037871;27;97747;-28
2022/09/30 11:50:58;;;;;;;5.72;2.22;;;;;;;17.90;63.11;101011.94;5036598;28;96596;-27
2022/09/30 11:53:41;;;;;;;4.00;2.42;;;;;;;17.96;62.88;101007.78;5036500;28;96797;-28